createdAt,value
2022-10-13T00:00:05.870Z,18.80
2022-10-13T00:02:38.799Z,18.70
2022-10-13T00:05:15.739Z,18.70
2022-10-13T00:07:48.619Z,18.70
2022-10-13T00:10:21.518Z,18.60
2022-10-13T00:12:54.556Z,18.60
2022-10-13T00:15:27.919Z,18.60
2022-10-13T00:18:00.783Z,18.60
2022-10-13T00:20:33.901Z,18.60
2022-10-13T00:23:06.795Z,18.60
2022-10-13T00:25:46.989Z,18.60
2022-10-13T00:28:22.265Z,18.60
2022-10-13T00:30:55.552Z,18.60
2022-10-13T00:33:28.588Z,18.60
2022-10-13T00:36:01.765Z,18.60
2022-10-13T00:38:34.819Z,18.60
2022-10-13T00:41:07.993Z,18.60
2022-10-13T00:44:06.194Z,18.60
2022-10-13T00:46:46.215Z,18.50
2022-10-13T00:49:19.199Z,18.50
2022-10-13T00:51:53.666Z,18.50
2022-10-13T00:54:28.145Z,18.60
2022-10-13T00:57:01.230Z,18.60
2022-10-13T00:59:34.782Z,18.60
2022-10-13T01:02:07.958Z,18.70
2022-10-13T01:04:42.608Z,18.70
2022-10-13T01:07:20.096Z,18.70
2022-10-13T01:10:05.193Z,18.80
2022-10-13T01:12:50.268Z,18.70
2022-10-13T01:15:28.755Z,18.80
2022-10-13T01:18:15.463Z,18.70
2022-10-13T01:20:56.988Z,18.80
2022-10-13T01:23:34.765Z,18.80
2022-10-13T01:26:40.862Z,18.70
2022-10-13T01:29:35.473Z,18.70
2022-10-13T01:32:21.878Z,18.70
2022-10-13T01:35:06.119Z,18.70
2022-10-13T01:37:43.872Z,18.70
2022-10-13T01:40:34.505Z,18.70
2022-10-13T01:43:24.242Z,18.70
2022-10-13T01:45:59.228Z,18.70
2022-10-13T01:48:40.552Z,18.70
2022-10-13T01:51:15.990Z,18.70
2022-10-13T01:53:50.864Z,18.70
2022-10-13T01:56:23.742Z,18.70
2022-10-13T01:58:58.830Z,18.70
2022-10-13T02:01:50.780Z,18.70
2022-10-13T02:04:28.597Z,18.70
2022-10-13T02:07:29.960Z,18.70
2022-10-13T02:10:21.293Z,18.70
2022-10-13T02:13:06.969Z,18.70
2022-10-13T02:15:42.224Z,18.70
2022-10-13T02:18:16.741Z,18.70
2022-10-13T02:20:50.641Z,18.70
2022-10-13T02:23:23.428Z,18.70
2022-10-13T02:25:57.013Z,18.70
2022-10-13T02:28:30.421Z,18.70
2022-10-13T02:31:03.168Z,18.70
2022-10-13T02:33:37.808Z,18.70
2022-10-13T02:36:10.607Z,18.70
2022-10-13T02:38:43.722Z,18.70
2022-10-13T02:41:16.591Z,18.70
2022-10-13T02:43:49.615Z,18.70
2022-10-13T02:46:22.565Z,18.70
2022-10-13T02:48:55.542Z,18.70
2022-10-13T02:51:36.209Z,18.70
2022-10-13T02:54:06.376Z,18.60
2022-10-13T02:56:39.334Z,18.60
2022-10-13T02:59:12.467Z,18.60
2022-10-13T03:01:46.407Z,18.60
2022-10-13T03:04:19.315Z,18.50
2022-10-13T03:06:52.527Z,18.60
2022-10-13T03:09:25.491Z,18.60
2022-10-13T03:11:58.575Z,18.50
2022-10-13T03:14:31.516Z,18.50
2022-10-13T03:17:04.604Z,18.50
2022-10-13T03:19:37.538Z,18.50
2022-10-13T03:22:13.275Z,18.50
2022-10-13T03:24:46.179Z,18.50
2022-10-13T03:27:19.420Z,18.50
2022-10-13T03:29:56.568Z,18.50
2022-10-13T03:32:29.405Z,18.50
2022-10-13T03:35:02.340Z,18.50
2022-10-13T03:37:35.357Z,18.50
2022-10-13T03:40:08.946Z,18.60
2022-10-13T03:42:44.584Z,18.60
2022-10-13T03:45:17.419Z,18.60
2022-10-13T03:47:50.453Z,18.60
2022-10-13T03:50:23.669Z,18.60
2022-10-13T03:52:56.887Z,18.60
2022-10-13T03:55:29.592Z,18.60
2022-10-13T03:58:02.601Z,18.60
2022-10-13T04:00:35.862Z,18.60
2022-10-13T04:03:08.885Z,18.60
2022-10-13T04:05:41.820Z,18.60
2022-10-13T04:08:15.159Z,18.60
2022-10-13T04:10:48.164Z,18.60
2022-10-13T04:13:23.476Z,18.60
2022-10-13T04:15:55.292Z,18.60
2022-10-13T04:18:28.091Z,18.60
2022-10-13T04:21:00.981Z,18.60
2022-10-13T04:23:34.109Z,18.60
2022-10-13T04:26:07.783Z,18.60
2022-10-13T04:28:40.948Z,18.60
2022-10-13T04:31:13.860Z,18.60
2022-10-13T04:33:47.067Z,18.60
2022-10-13T04:36:20.920Z,18.50
2022-10-13T04:38:53.732Z,18.50
2022-10-13T04:41:28.225Z,18.50
2022-10-13T04:44:02.373Z,18.50
2022-10-13T04:46:35.490Z,18.50
2022-10-13T04:49:08.425Z,18.50
2022-10-13T04:51:41.241Z,18.50
2022-10-13T04:54:14.491Z,18.40
2022-10-13T04:56:48.854Z,18.40
2022-10-13T04:59:21.794Z,18.40
2022-10-13T05:01:54.740Z,18.30
2022-10-13T05:04:27.631Z,18.30
2022-10-13T05:07:16.931Z,18.30
2022-10-13T05:09:34.825Z,18.30
2022-10-13T05:12:07.842Z,18.30
2022-10-13T05:14:40.983Z,18.30
2022-10-13T05:17:14.580Z,18.30
2022-10-13T05:19:47.528Z,18.30
2022-10-13T05:22:20.907Z,18.30
2022-10-13T05:24:53.991Z,18.20
2022-10-13T05:27:27.398Z,18.20
2022-10-13T05:30:00.332Z,18.20
2022-10-13T05:32:32.899Z,18.20
2022-10-13T05:35:05.890Z,18.20
2022-10-13T05:37:39.177Z,18.20
2022-10-13T05:40:15.811Z,18.20
2022-10-13T05:42:48.786Z,18.20
2022-10-13T05:45:26.493Z,18.20
2022-10-13T05:47:59.513Z,18.20
2022-10-13T05:50:33.233Z,18.20
2022-10-13T05:53:06.510Z,18.20
2022-10-13T05:55:40.230Z,18.20
2022-10-13T05:58:14.431Z,18.10
2022-10-13T06:00:48.734Z,18.10
2022-10-13T06:03:23.982Z,18.10
2022-10-13T06:05:56.935Z,18.10
2022-10-13T06:08:29.870Z,18.10
2022-10-13T06:11:05.330Z,18.10
2022-10-13T06:13:38.459Z,18.10
2022-10-13T06:16:11.694Z,18.10
2022-10-13T06:18:44.381Z,18.10
2022-10-13T06:21:21.963Z,18.00
2022-10-13T06:23:58.620Z,18.00
2022-10-13T06:26:34.479Z,18.00
2022-10-13T06:29:06.550Z,18.00
2022-10-13T06:31:40.478Z,18.00
2022-10-13T06:34:14.306Z,18.00
2022-10-13T06:36:47.168Z,18.00
2022-10-13T06:39:23.054Z,18.00
2022-10-13T06:41:57.171Z,18.00
2022-10-13T06:44:30.340Z,18.00
2022-10-13T06:47:08.594Z,17.90
2022-10-13T06:49:39.214Z,17.90
2022-10-13T06:52:12.790Z,17.90
2022-10-13T06:54:45.764Z,17.90
2022-10-13T06:57:18.977Z,17.90
2022-10-13T06:59:52.242Z,17.80
2022-10-13T07:02:25.154Z,17.80
2022-10-13T07:04:58.837Z,17.80
2022-10-13T07:07:31.753Z,17.80
2022-10-13T07:10:04.677Z,17.70
2022-10-13T07:12:37.783Z,17.70
2022-10-13T07:15:11.510Z,17.70
2022-10-13T07:17:46.865Z,17.60
2022-10-13T07:20:19.778Z,17.70
2022-10-13T07:22:54.267Z,17.70
2022-10-13T07:25:27.146Z,17.70
2022-10-13T07:28:01.461Z,17.70
2022-10-13T07:30:34.498Z,17.60
2022-10-13T07:33:07.363Z,17.60
2022-10-13T07:35:44.111Z,17.60
2022-10-13T07:38:17.345Z,17.60
2022-10-13T07:40:50.314Z,17.60
2022-10-13T07:43:23.345Z,17.60
2022-10-13T07:45:56.320Z,17.60
2022-10-13T07:48:33.755Z,17.60
2022-10-13T07:51:08.768Z,17.60
2022-10-13T07:53:41.881Z,17.60
2022-10-13T07:56:16.205Z,17.60
2022-10-13T07:58:50.857Z,17.50
2022-10-13T08:01:23.818Z,17.50
2022-10-13T08:03:58.659Z,17.50
2022-10-13T08:06:31.781Z,17.50
2022-10-13T08:09:05.408Z,17.50
2022-10-13T08:11:38.341Z,17.50
2022-10-13T08:14:11.554Z,17.50
2022-10-13T08:16:48.587Z,17.50
2022-10-13T08:19:20.900Z,17.50
2022-10-13T08:21:58.818Z,17.50
2022-10-13T08:24:27.985Z,17.40
2022-10-13T08:27:01.514Z,17.40
2022-10-13T08:29:34.439Z,17.40
2022-10-13T08:32:07.233Z,17.30
2022-10-13T08:34:40.157Z,17.30
2022-10-13T08:37:17.201Z,17.30
2022-10-13T08:39:50.923Z,17.30
2022-10-13T08:42:25.293Z,17.30
2022-10-13T08:47:55.948Z,17.30
2022-10-13T08:50:31.057Z,17.20
2022-10-13T08:53:11.678Z,17.20
2022-10-13T08:55:49.394Z,17.20
2022-10-13T08:58:30.720Z,17.10
2022-10-13T09:01:15.178Z,17.10
2022-10-13T09:03:53.259Z,17.10
2022-10-13T09:06:31.352Z,17.10
2022-10-13T09:09:06.688Z,17.10
2022-10-13T09:11:41.418Z,17.10
2022-10-13T09:14:16.231Z,17.10
2022-10-13T09:16:49.654Z,17.10
2022-10-13T09:19:39.679Z,17.10
2022-10-13T09:22:36.107Z,17.00
2022-10-13T09:25:14.710Z,17.00
2022-10-13T09:28:02.274Z,17.00
2022-10-13T09:30:43.238Z,17.00
2022-10-13T09:33:21.339Z,17.00
2022-10-13T09:36:09.097Z,17.00
2022-10-13T09:38:42.513Z,17.00
2022-10-13T09:41:20.282Z,17.00
2022-10-13T09:43:55.463Z,17.00
2022-10-13T09:46:44.264Z,17.00
2022-10-13T09:49:36.937Z,17.00
2022-10-13T09:52:18.324Z,16.90
2022-10-13T09:54:53.410Z,16.90
2022-10-13T09:57:50.170Z,16.90
2022-10-13T10:00:28.095Z,16.90
2022-10-13T10:03:21.409Z,16.90
2022-10-13T10:05:56.879Z,16.90
2022-10-13T10:09:02.769Z,16.90
2022-10-13T10:11:29.986Z,16.80
2022-10-13T10:14:05.071Z,16.80
2022-10-13T10:16:39.658Z,16.80
2022-10-13T10:19:26.353Z,16.70
2022-10-13T10:22:17.761Z,16.70
2022-10-13T10:25:05.668Z,16.70
2022-10-13T10:27:43.876Z,16.70
2022-10-13T10:30:28.337Z,16.70
2022-10-13T10:33:26.720Z,16.60
2022-10-13T10:36:20.930Z,16.60
2022-10-13T10:38:55.812Z,16.60
2022-10-13T10:41:36.125Z,16.60
2022-10-13T10:44:16.850Z,16.60
2022-10-13T10:46:51.759Z,16.60
2022-10-13T10:49:29.463Z,16.50
2022-10-13T10:52:03.317Z,16.50
2022-10-13T10:54:50.418Z,16.50
2022-10-13T10:57:40.927Z,16.50
2022-10-13T11:00:22.835Z,16.50
2022-10-13T11:03:06.299Z,16.50
2022-10-13T11:06:06.654Z,16.50
2022-10-13T11:08:50.568Z,16.50
2022-10-13T11:11:30.191Z,16.50
2022-10-13T11:14:10.840Z,16.50
2022-10-13T11:17:03.842Z,16.50
2022-10-13T11:19:38.671Z,16.50
2022-10-13T11:22:14.282Z,16.50
2022-10-13T11:24:58.543Z,16.50
2022-10-13T11:27:42.219Z,16.50
2022-10-13T11:30:53.403Z,16.50
2022-10-13T11:33:47.780Z,16.50
2022-10-13T11:36:43.532Z,16.50
2022-10-13T11:39:32.925Z,16.40
2022-10-13T11:42:22.552Z,16.40
2022-10-13T11:45:04.421Z,16.40
2022-10-13T11:47:48.794Z,16.40
2022-10-13T11:50:45.944Z,16.40
2022-10-13T11:53:24.021Z,16.40
2022-10-13T11:56:02.966Z,16.30
2022-10-13T11:58:37.487Z,16.40
2022-10-13T12:01:18.072Z,16.40
2022-10-13T12:03:51.606Z,16.30
2022-10-13T12:06:38.840Z,16.30
2022-10-13T12:09:22.542Z,16.40
2022-10-13T12:12:03.834Z,16.30
2022-10-13T12:14:46.210Z,16.40
2022-10-13T12:17:37.813Z,16.40
2022-10-13T12:20:25.103Z,16.40
2022-10-13T12:23:01.437Z,16.30
2022-10-13T12:25:35.342Z,16.30
2022-10-13T12:28:08.164Z,16.40
2022-10-13T12:30:41.216Z,16.30
2022-10-13T12:33:33.718Z,16.30
2022-10-13T12:36:22.982Z,16.30
2022-10-13T12:38:57.999Z,16.30
2022-10-13T12:41:33.548Z,16.30
2022-10-13T12:44:11.602Z,16.30
2022-10-13T12:46:55.370Z,16.30
2022-10-13T12:49:36.371Z,16.30
2022-10-13T12:52:15.488Z,16.30
2022-10-13T12:54:58.594Z,16.30
2022-10-13T12:57:42.293Z,16.30
2022-10-13T13:00:29.737Z,16.30
2022-10-13T13:03:08.171Z,16.30
2022-10-13T13:05:52.343Z,16.30
2022-10-13T13:08:33.695Z,16.30
2022-10-13T13:11:08.948Z,16.30
2022-10-13T13:13:41.846Z,16.30
2022-10-13T13:16:25.551Z,16.30
2022-10-13T13:18:58.617Z,16.30
2022-10-13T13:21:31.777Z,16.30
2022-10-13T13:24:16.265Z,16.30
2022-10-13T13:26:38.977Z,16.30
2022-10-13T13:29:13.220Z,16.30
2022-10-13T13:31:46.242Z,16.30
2022-10-13T13:34:21.140Z,16.30
2022-10-13T13:36:54.380Z,16.30
2022-10-13T13:39:27.268Z,16.30
2022-10-13T13:42:00.476Z,16.30
2022-10-13T13:44:37.508Z,16.30
2022-10-13T13:47:11.864Z,16.30
2022-10-13T13:49:44.561Z,16.30
2022-10-13T13:52:17.960Z,16.30
2022-10-13T13:54:51.489Z,16.30
2022-10-13T13:57:24.388Z,16.30
2022-10-13T14:00:00.029Z,16.30
2022-10-13T14:02:33.690Z,16.30
2022-10-13T14:05:07.025Z,16.30
2022-10-13T14:07:40.323Z,16.30
2022-10-13T14:10:14.247Z,16.30
2022-10-13T14:12:47.371Z,16.30
2022-10-13T14:15:28.845Z,16.30
2022-10-13T14:17:59.033Z,16.30
2022-10-13T14:20:32.048Z,16.30
2022-10-13T14:23:05.011Z,16.20
2022-10-13T14:25:38.227Z,16.20
2022-10-13T14:28:18.263Z,16.20
2022-10-13T14:30:49.874Z,16.20
2022-10-13T14:33:22.690Z,16.20
2022-10-13T14:36:03.470Z,16.10
2022-10-13T14:38:37.148Z,16.10
2022-10-13T14:41:10.742Z,16.00
2022-10-13T14:43:44.004Z,15.90
2022-10-13T14:46:17.773Z,15.90
2022-10-13T14:48:50.556Z,15.80
2022-10-13T14:51:23.219Z,15.80
2022-10-13T14:53:55.952Z,15.80
2022-10-13T14:56:31.512Z,15.80
2022-10-13T14:59:06.301Z,15.80
2022-10-13T15:01:40.170Z,15.80
2022-10-13T15:04:13.488Z,15.80
2022-10-13T15:06:46.614Z,15.80
2022-10-13T15:09:21.077Z,15.80
2022-10-13T15:11:53.949Z,15.80
2022-10-13T15:14:26.983Z,15.90
2022-10-13T15:16:59.890Z,15.90
2022-10-13T15:19:33.091Z,15.80
2022-10-13T15:22:06.058Z,15.80
2022-10-13T15:24:39.075Z,15.80
2022-10-13T15:27:12.003Z,15.80
2022-10-13T15:29:45.041Z,15.80
2022-10-13T15:32:22.810Z,15.80
2022-10-13T15:34:56.172Z,15.80
2022-10-13T15:37:29.122Z,15.80
2022-10-13T15:40:01.961Z,15.80
2022-10-13T15:42:34.954Z,15.80
2022-10-13T15:45:10.778Z,15.80
2022-10-13T15:47:42.460Z,15.80
2022-10-13T15:50:15.797Z,15.80
2022-10-13T15:52:48.835Z,15.70
2022-10-13T15:55:21.999Z,15.70
2022-10-13T15:57:55.216Z,15.70
2022-10-13T16:00:28.092Z,15.70
2022-10-13T16:03:01.326Z,15.60
2022-10-13T16:05:34.537Z,15.60
2022-10-13T16:08:07.903Z,15.60
2022-10-13T16:10:45.058Z,15.60
2022-10-13T16:13:18.786Z,15.60
2022-10-13T16:16:05.161Z,15.50
2022-10-13T16:18:39.884Z,15.50
2022-10-13T16:21:21.002Z,15.50
2022-10-13T16:23:53.907Z,15.40
2022-10-13T16:26:29.398Z,15.40
2022-10-13T16:29:06.611Z,15.30
2022-10-13T16:31:39.514Z,15.30
2022-10-13T16:34:12.414Z,15.30
2022-10-13T16:36:45.453Z,15.30
2022-10-13T16:39:18.382Z,15.30
2022-10-13T16:41:51.369Z,15.30
2022-10-13T16:44:24.596Z,15.30
2022-10-13T16:46:58.516Z,15.30
2022-10-13T16:49:31.517Z,15.30
2022-10-13T16:52:04.503Z,15.30
2022-10-13T16:54:37.213Z,15.30
2022-10-13T16:57:09.990Z,15.20
2022-10-13T16:59:42.951Z,15.20
2022-10-13T17:02:19.331Z,15.20
2022-10-13T17:04:52.245Z,15.20
2022-10-13T17:07:25.694Z,15.20
2022-10-13T17:09:58.286Z,15.20
2022-10-13T17:12:31.096Z,15.20
2022-10-13T17:15:04.045Z,15.20
2022-10-13T17:17:36.955Z,15.20
2022-10-13T17:20:10.533Z,15.20
2022-10-13T17:22:43.902Z,15.20
2022-10-13T17:25:16.863Z,15.20
2022-10-13T17:27:49.883Z,15.20
2022-10-13T17:30:22.885Z,15.20
2022-10-13T17:33:04.283Z,15.20
2022-10-13T17:35:34.858Z,15.20
2022-10-13T17:38:07.741Z,15.20
2022-10-13T17:40:41.235Z,15.20
2022-10-13T17:43:14.319Z,15.20
2022-10-13T17:45:47.211Z,15.20
2022-10-13T17:48:23.085Z,15.20
2022-10-13T17:50:54.414Z,15.20
2022-10-13T17:53:27.403Z,15.20
2022-10-13T17:56:04.459Z,15.20
2022-10-13T17:58:38.809Z,15.30
2022-10-13T18:01:13.726Z,15.20
2022-10-13T18:03:55.183Z,15.20
2022-10-13T18:06:29.225Z,15.30
2022-10-13T18:09:02.496Z,15.20
2022-10-13T18:11:35.869Z,15.20
2022-10-13T18:14:09.176Z,15.20
2022-10-13T18:16:42.617Z,15.20
2022-10-13T18:19:15.781Z,15.20
2022-10-13T18:21:48.852Z,15.20
2022-10-13T18:24:21.859Z,15.10
2022-10-13T18:26:54.918Z,15.10
2022-10-13T18:29:27.749Z,15.10
2022-10-13T18:32:01.071Z,15.10
2022-10-13T18:34:34.057Z,15.10
2022-10-13T18:37:07.383Z,15.10
2022-10-13T18:39:40.623Z,15.10
2022-10-13T18:42:13.579Z,15.10
2022-10-13T18:44:46.660Z,15.10
2022-10-13T18:47:22.479Z,15.10
2022-10-13T18:49:55.561Z,15.10
2022-10-13T18:52:28.505Z,15.10
2022-10-13T18:55:01.507Z,15.10
2022-10-13T18:57:34.493Z,15.10
2022-10-13T19:00:08.646Z,15.10
2022-10-13T19:02:41.520Z,15.10
2022-10-13T19:05:14.785Z,15.10
2022-10-13T19:07:47.993Z,15.10
2022-10-13T19:10:25.518Z,15.10
2022-10-13T19:12:58.529Z,15.10
2022-10-13T19:15:31.428Z,15.10
2022-10-13T19:18:08.493Z,15.10
2022-10-13T19:20:41.418Z,15.10
2022-10-13T19:23:16.286Z,15.10
2022-10-13T19:25:49.371Z,15.10
2022-10-13T19:28:22.460Z,15.10
2022-10-13T19:30:56.491Z,15.10
2022-10-13T19:33:29.417Z,15.10
2022-10-13T19:36:02.463Z,15.10
2022-10-13T19:38:35.398Z,15.10
2022-10-13T19:41:10.078Z,15.10
2022-10-13T19:43:42.918Z,15.10
2022-10-13T19:46:15.748Z,15.10
2022-10-13T19:48:48.668Z,15.20
2022-10-13T19:51:21.881Z,15.20
2022-10-13T19:53:54.809Z,15.20
2022-10-13T19:56:29.794Z,15.20
2022-10-13T19:59:02.653Z,15.20
2022-10-13T20:01:36.920Z,15.20
2022-10-13T20:04:09.965Z,15.20
2022-10-13T20:06:43.533Z,15.20
2022-10-13T20:09:16.654Z,15.20
2022-10-13T20:11:50.797Z,15.20
2022-10-13T20:14:24.181Z,15.20
2022-10-13T20:16:58.137Z,15.20
2022-10-13T20:19:31.011Z,15.30
2022-10-13T20:22:03.927Z,15.30
2022-10-13T20:24:55.477Z,15.30
2022-10-13T20:27:28.762Z,15.30
2022-10-13T20:30:01.760Z,15.30
2022-10-13T20:32:34.577Z,15.30
2022-10-13T20:35:07.585Z,15.30
2022-10-13T20:37:40.588Z,15.30
2022-10-13T20:40:14.083Z,15.30
2022-10-13T20:42:47.036Z,15.30
2022-10-13T20:45:20.185Z,15.30
2022-10-13T20:47:53.176Z,15.30
2022-10-13T20:50:26.000Z,15.30
2022-10-13T20:52:58.930Z,15.30
2022-10-13T20:55:32.674Z,15.30
2022-10-13T20:58:05.603Z,15.30
2022-10-13T21:00:38.533Z,15.30
2022-10-13T21:03:11.190Z,15.30
2022-10-13T21:05:43.983Z,15.30
2022-10-13T21:08:16.816Z,15.30
2022-10-13T21:10:50.103Z,15.30
2022-10-13T21:13:24.357Z,15.30
2022-10-13T21:15:57.200Z,15.30
2022-10-13T21:18:30.130Z,15.30
2022-10-13T21:21:07.987Z,15.40
2022-10-13T21:23:41.632Z,15.40
2022-10-13T21:26:20.411Z,15.40
2022-10-13T21:28:49.126Z,15.20
2022-10-13T21:31:23.250Z,15.20
2022-10-13T21:33:56.307Z,15.30
2022-10-13T21:36:32.405Z,15.30
2022-10-13T21:39:07.833Z,15.30
2022-10-13T21:41:40.909Z,15.30
2022-10-13T21:44:15.801Z,15.40
2022-10-13T21:46:48.715Z,15.40
2022-10-13T21:49:21.711Z,15.40
2022-10-13T21:51:54.821Z,15.40
2022-10-13T21:54:27.817Z,15.40
2022-10-13T21:57:00.809Z,15.40
2022-10-13T21:59:34.026Z,15.40
2022-10-13T22:02:07.058Z,15.40
2022-10-13T22:04:39.991Z,15.40
2022-10-13T22:07:13.029Z,15.40
2022-10-13T22:09:45.841Z,15.40
2022-10-13T22:12:18.882Z,15.40
2022-10-13T22:14:52.024Z,15.40
2022-10-13T22:17:24.877Z,15.30
2022-10-13T22:19:58.010Z,15.30
2022-10-13T22:22:31.141Z,15.30
2022-10-13T22:25:04.272Z,15.40
2022-10-13T22:27:37.277Z,15.40
2022-10-13T22:30:10.982Z,15.40
2022-10-13T22:32:43.869Z,15.30
2022-10-13T22:35:16.775Z,15.40
2022-10-13T22:37:49.794Z,15.40
2022-10-13T22:40:22.496Z,15.40
2022-10-13T22:42:55.402Z,15.40
2022-10-13T22:45:32.534Z,15.40
2022-10-13T22:48:07.739Z,15.40
2022-10-13T22:50:40.644Z,15.50
2022-10-13T22:53:13.715Z,15.50
2022-10-13T22:55:46.846Z,15.50
2022-10-13T22:58:19.793Z,15.50
2022-10-13T23:00:52.933Z,15.60
2022-10-13T23:03:25.722Z,15.60
2022-10-13T23:05:58.658Z,15.60
2022-10-13T23:08:31.638Z,15.60
2022-10-13T23:11:04.495Z,15.70
2022-10-13T23:13:37.474Z,15.70
2022-10-13T23:16:15.314Z,15.70
2022-10-13T23:18:48.494Z,15.70
2022-10-13T23:21:22.502Z,15.70
2022-10-13T23:23:59.949Z,15.70
2022-10-13T23:26:33.338Z,15.70
2022-10-13T23:29:06.752Z,15.70
2022-10-13T23:31:40.141Z,15.70
2022-10-13T23:34:13.369Z,15.70
2022-10-13T23:36:46.556Z,15.70
2022-10-13T23:39:19.460Z,15.70
2022-10-13T23:41:52.419Z,15.70
2022-10-13T23:44:25.429Z,15.80
2022-10-13T23:46:58.381Z,15.80
2022-10-13T23:49:31.508Z,15.80
2022-10-13T23:52:08.530Z,15.80
2022-10-13T23:54:38.249Z,15.80
2022-10-13T23:57:11.147Z,15.80
2022-10-13T23:59:43.838Z,15.80
